createdAt,value
2022-09-12T00:00:08.901Z,2.80
2022-09-12T00:00:40.745Z,3.30
2022-09-12T00:01:16.898Z,3.08
2022-09-12T00:01:48.754Z,4.85
2022-09-12T00:02:20.656Z,2.95
2022-09-12T00:02:54.549Z,3.45
2022-09-12T00:03:26.370Z,3.42
2022-09-12T00:03:59.821Z,3.17
2022-09-12T00:04:32.561Z,2.70
2022-09-12T00:05:07.312Z,2.90
2022-09-12T00:05:42.484Z,2.92
2022-09-12T00:06:22.651Z,3.13
2022-09-12T00:06:55.071Z,3.00
2022-09-12T00:07:26.891Z,3.10
2022-09-12T00:08:00.132Z,3.45
2022-09-12T00:08:31.907Z,3.15
2022-09-12T00:09:07.901Z,2.42
2022-09-12T00:09:40.218Z,3.10
2022-09-12T00:10:12.008Z,3.42
2022-09-12T00:10:44.348Z,3.28
2022-09-12T00:11:17.092Z,3.15
2022-09-12T00:11:48.879Z,3.40
2022-09-12T00:12:20.672Z,3.60
2022-09-12T00:12:52.540Z,3.00
2022-09-12T00:13:25.268Z,2.80
2022-09-12T00:13:58.182Z,3.40
2022-09-12T00:14:30.162Z,2.72
2022-09-12T00:15:03.425Z,3.30
2022-09-12T00:15:38.410Z,3.03
2022-09-12T00:16:22.645Z,3.33
2022-09-12T00:16:58.579Z,3.10
2022-09-12T00:17:30.385Z,3.58
2022-09-12T00:18:02.180Z,2.95
2022-09-12T00:18:34.172Z,2.70
2022-09-12T00:19:08.481Z,2.97
2022-09-12T00:19:40.317Z,2.97
2022-09-12T00:20:12.190Z,3.55
2022-09-12T00:20:46.471Z,3.00
2022-09-12T00:21:18.824Z,2.58
2022-09-12T00:21:50.656Z,2.78
2022-09-12T00:22:23.665Z,3.35
2022-09-12T00:22:55.468Z,3.40
2022-09-12T00:23:27.228Z,3.17
2022-09-12T00:23:59.071Z,2.90
2022-09-12T00:24:33.380Z,2.55
2022-09-12T00:25:06.730Z,2.83
2022-09-12T00:25:42.454Z,2.78
2022-09-12T00:26:17.061Z,2.88
2022-09-12T00:26:48.932Z,2.33
2022-09-12T00:27:20.688Z,2.75
2022-09-12T00:27:53.429Z,3.00
2022-09-12T00:28:25.373Z,3.17
2022-09-12T00:28:57.240Z,2.78
2022-09-12T00:29:29.999Z,2.97
2022-09-12T00:30:01.761Z,2.67
2022-09-12T00:30:34.018Z,2.65
2022-09-12T00:31:07.244Z,2.70
2022-09-12T00:31:41.411Z,3.30
2022-09-12T00:32:13.256Z,2.95
2022-09-12T00:32:45.028Z,3.00
2022-09-12T00:33:19.267Z,2.90
2022-09-12T00:33:51.113Z,3.05
2022-09-12T00:34:23.857Z,3.25
2022-09-12T00:34:55.639Z,2.72
2022-09-12T00:35:27.404Z,3.10
2022-09-12T00:36:00.177Z,3.08
2022-09-12T00:36:32.003Z,2.72
2022-09-12T00:37:03.854Z,3.17
2022-09-12T00:37:36.802Z,2.85
2022-09-12T00:38:08.598Z,3.35
2022-09-12T00:38:42.051Z,2.78
2022-09-12T00:39:17.733Z,2.85
2022-09-12T00:39:49.587Z,3.03
2022-09-12T00:40:21.452Z,2.63
2022-09-12T00:40:54.277Z,3.80
2022-09-12T00:41:28.975Z,3.08
2022-09-12T00:42:00.875Z,2.90
2022-09-12T00:42:33.667Z,2.55
2022-09-12T00:43:05.615Z,2.70
2022-09-12T00:43:40.117Z,2.60
2022-09-12T00:44:49.113Z,2.90
2022-09-12T00:45:31.327Z,2.80
2022-09-12T00:46:08.005Z,2.90
2022-09-12T00:46:45.277Z,3.47
2022-09-12T00:47:22.205Z,2.88
2022-09-12T00:47:54.891Z,2.53
2022-09-12T00:48:34.466Z,3.00
2022-09-12T00:49:12.380Z,3.45
2022-09-12T00:49:48.431Z,2.50
2022-09-12T00:50:21.227Z,2.47
2022-09-12T00:50:53.341Z,2.53
2022-09-12T00:51:25.744Z,2.55
2022-09-12T00:52:04.267Z,3.10
2022-09-12T00:52:41.067Z,3.03
2022-09-12T00:53:12.870Z,2.83
2022-09-12T00:53:47.309Z,2.97
2022-09-12T00:54:22.541Z,2.53
2022-09-12T00:54:59.681Z,3.30
2022-09-12T00:55:36.357Z,2.85
2022-09-12T00:56:08.476Z,2.28
2022-09-12T00:56:42.528Z,2.70
2022-09-12T00:57:17.512Z,2.63
2022-09-12T00:57:52.996Z,2.83
2022-09-12T00:58:27.969Z,2.58
2022-09-12T00:59:06.213Z,3.00
2022-09-12T00:59:41.418Z,4.43
2022-09-12T01:00:15.633Z,16.55
2022-09-12T01:00:48.729Z,14.45
2022-09-12T01:01:20.642Z,12.15
2022-09-12T01:01:55.949Z,5.13
2022-09-12T01:02:29.392Z,3.50
2022-09-12T01:03:04.261Z,3.22
2022-09-12T01:03:36.067Z,5.97
2022-09-12T01:04:09.690Z,4.00
2022-09-12T01:04:42.456Z,4.13
2022-09-12T01:05:14.935Z,3.45
2022-09-12T01:05:55.869Z,3.00
2022-09-12T01:06:32.743Z,3.40
2022-09-12T01:07:06.169Z,2.90
2022-09-12T01:07:40.359Z,2.80
2022-09-12T01:08:12.556Z,2.75
2022-09-12T01:08:46.784Z,2.95
2022-09-12T01:09:22.703Z,3.17
2022-09-12T01:09:54.586Z,2.53
2022-09-12T01:10:26.349Z,3.13
2022-09-12T01:10:59.246Z,2.75
2022-09-12T01:11:31.959Z,2.80
2022-09-12T01:12:05.041Z,3.10
2022-09-12T01:12:40.952Z,2.60
2022-09-12T01:13:13.189Z,2.80
2022-09-12T01:13:46.060Z,3.50
2022-09-12T01:14:20.416Z,2.60
2022-09-12T01:14:52.218Z,3.15
2022-09-12T01:15:24.125Z,2.80
2022-09-12T01:15:57.211Z,2.85
2022-09-12T01:16:29.821Z,2.88
2022-09-12T01:17:03.048Z,2.53
2022-09-12T01:17:43.010Z,3.47
2022-09-12T01:18:24.842Z,3.00
2022-09-12T01:19:11.125Z,2.42
2022-09-12T01:20:26.369Z,2.92
2022-09-12T01:21:17.446Z,2.60
2022-09-12T01:22:01.240Z,1.98
2022-09-12T01:22:54.274Z,2.53
2022-09-12T01:23:57.127Z,3.03
2022-09-12T01:24:54.784Z,2.70
2022-09-12T01:25:31.001Z,3.38
2022-09-12T01:26:34.287Z,3.03
2022-09-12T01:27:24.687Z,2.67
2022-09-12T01:28:34.626Z,2.67
2022-09-12T01:29:27.228Z,2.60
2022-09-12T01:30:41.626Z,2.92
2022-09-12T01:31:20.405Z,3.10
2022-09-12T01:32:01.099Z,2.70
2022-09-12T01:32:43.255Z,2.88
2022-09-12T01:33:32.606Z,2.90
2022-09-12T01:34:17.982Z,3.30
2022-09-12T01:34:56.949Z,3.15
2022-09-12T01:35:37.674Z,2.85
2022-09-12T01:36:29.781Z,3.10
2022-09-12T01:37:06.113Z,3.00
2022-09-12T01:37:42.410Z,3.17
2022-09-12T01:38:25.761Z,3.00
2022-09-12T01:39:02.034Z,2.42
2022-09-12T01:39:40.218Z,2.50
2022-09-12T01:40:18.686Z,3.00
2022-09-12T01:41:00.423Z,2.85
2022-09-12T01:41:45.827Z,2.30
2022-09-12T01:42:25.403Z,2.92
2022-09-12T01:43:08.086Z,2.88
2022-09-12T01:43:48.280Z,2.70
2022-09-12T01:44:26.804Z,2.88
2022-09-12T01:45:11.503Z,2.55
2022-09-12T01:45:49.469Z,2.83
2022-09-12T01:46:25.561Z,2.70
2022-09-12T01:47:03.083Z,2.67
2022-09-12T01:47:40.238Z,2.60
2022-09-12T01:48:17.274Z,2.40
2022-09-12T01:48:55.672Z,2.60
2022-09-12T01:49:33.049Z,2.47
2022-09-12T01:50:09.582Z,3.05
2022-09-12T01:50:47.764Z,2.95
2022-09-12T01:51:23.820Z,2.95
2022-09-12T01:52:01.125Z,2.53
2022-09-12T01:52:37.817Z,78.90
2022-09-12T01:53:15.285Z,47.53
2022-09-12T01:53:52.640Z,29.88
2022-09-12T01:54:29.782Z,8.10
2022-09-12T01:55:09.774Z,9.82
2022-09-12T01:55:47.010Z,6.38
2022-09-12T01:56:25.835Z,4.55
2022-09-12T01:57:03.045Z,4.38
2022-09-12T01:57:41.230Z,3.40
2022-09-12T01:58:17.961Z,3.30
2022-09-12T01:58:56.152Z,3.03
2022-09-12T01:59:33.918Z,3.70
2022-09-12T02:00:09.962Z,3.00
2022-09-12T02:00:48.456Z,3.15
2022-09-12T02:01:26.400Z,2.20
2022-09-12T02:02:04.386Z,2.42
2022-09-12T02:02:39.393Z,2.50
2022-09-12T02:03:15.356Z,2.50
2022-09-12T02:03:52.715Z,3.25
2022-09-12T02:04:31.110Z,2.78
2022-09-12T02:05:11.104Z,3.20
2022-09-12T02:05:47.081Z,2.28
2022-09-12T02:06:21.134Z,2.60
2022-09-12T02:06:58.418Z,2.80
2022-09-12T02:07:37.357Z,2.78
2022-09-12T02:08:13.846Z,2.70
2022-09-12T02:08:50.236Z,2.90
2022-09-12T02:09:25.975Z,2.80
2022-09-12T02:10:04.065Z,2.25
2022-09-12T02:10:44.557Z,2.53
2022-09-12T02:11:16.795Z,2.10
2022-09-12T02:11:53.471Z,2.45
2022-09-12T02:12:30.369Z,2.90
2022-09-12T02:13:07.130Z,2.20
2022-09-12T02:13:42.678Z,2.33
2022-09-12T02:14:20.424Z,2.15
2022-09-12T02:14:57.238Z,2.60
2022-09-12T02:15:35.974Z,3.00
2022-09-12T02:16:11.956Z,2.10
2022-09-12T02:16:47.842Z,2.45
2022-09-12T02:17:23.088Z,2.67
2022-09-12T02:17:58.997Z,2.30
2022-09-12T02:18:33.809Z,3.42
2022-09-12T02:19:11.033Z,1.90
2022-09-12T02:19:46.457Z,2.47
2022-09-12T02:20:44.303Z,2.45
2022-09-12T02:21:15.061Z,2.40
2022-09-12T02:21:51.165Z,2.00
2022-09-12T02:22:25.794Z,2.28
2022-09-12T02:23:01.798Z,2.53
2022-09-12T02:23:38.505Z,2.40
2022-09-12T02:24:12.549Z,2.50
2022-09-12T02:24:49.373Z,2.53
2022-09-12T02:25:22.250Z,2.92
2022-09-12T02:25:57.603Z,2.22
2022-09-12T02:26:35.260Z,2.55
2022-09-12T02:27:11.345Z,2.17
2022-09-12T02:27:46.942Z,2.45
2022-09-12T02:28:24.245Z,2.40
2022-09-12T02:28:57.456Z,2.13
2022-09-12T02:29:30.116Z,2.47
2022-09-12T02:30:02.129Z,2.55
2022-09-12T02:30:51.333Z,2.70
2022-09-12T02:31:29.913Z,2.20
2022-09-12T02:32:06.124Z,2.13
2022-09-12T02:32:42.453Z,2.75
2022-09-12T02:33:20.422Z,2.53
2022-09-12T02:34:05.245Z,2.05
2022-09-12T02:34:46.212Z,2.22
2022-09-12T02:35:28.771Z,2.35
2022-09-12T02:36:11.066Z,2.70
2022-09-12T02:36:52.913Z,2.45
2022-09-12T02:37:34.025Z,2.53
2022-09-12T02:38:09.659Z,2.50
2022-09-12T02:38:45.544Z,2.20
2022-09-12T02:39:20.029Z,2.05
2022-09-12T02:39:53.473Z,2.45
2022-09-12T02:40:26.732Z,2.60
2022-09-12T02:40:58.673Z,2.80
2022-09-12T02:41:30.509Z,1.83
2022-09-12T02:42:04.921Z,2.10
2022-09-12T02:42:37.435Z,2.38
2022-09-12T02:43:09.419Z,2.15
2022-09-12T02:43:42.235Z,2.22
2022-09-12T02:44:14.037Z,2.40
2022-09-12T02:44:45.856Z,2.60
2022-09-12T02:45:19.308Z,2.55
2022-09-12T02:45:51.311Z,2.25
2022-09-12T02:46:28.689Z,2.35
2022-09-12T02:47:05.697Z,2.92
2022-09-12T02:47:42.084Z,2.35
2022-09-12T02:48:18.035Z,2.28
2022-09-12T02:48:50.874Z,2.95
2022-09-12T02:49:23.157Z,2.40
2022-09-12T02:49:56.774Z,3.08
2022-09-12T02:50:29.265Z,2.63
2022-09-12T02:51:03.104Z,2.90
2022-09-12T02:51:34.971Z,2.90
2022-09-12T02:52:07.128Z,2.88
2022-09-12T02:52:40.805Z,2.45
2022-09-12T02:53:12.964Z,2.10
2022-09-12T02:53:44.798Z,2.17
2022-09-12T02:54:19.300Z,3.00
2022-09-12T02:54:51.860Z,2.60
2022-09-12T02:55:24.644Z,2.10
2022-09-12T02:55:58.098Z,2.53
2022-09-12T02:56:31.315Z,2.40
2022-09-12T02:57:03.226Z,2.50
2022-09-12T02:57:35.992Z,2.30
2022-09-12T02:58:13.975Z,2.20
2022-09-12T02:58:46.430Z,2.75
2022-09-12T02:59:22.396Z,2.30
2022-09-12T02:59:58.610Z,2.20
2022-09-12T03:00:34.825Z,2.15
2022-09-12T03:01:15.157Z,2.90
2022-09-12T03:02:15.278Z,2.17
2022-09-12T03:03:04.658Z,2.20
2022-09-12T03:03:50.029Z,2.08
2022-09-12T03:04:42.866Z,2.00
2022-09-12T03:05:24.780Z,2.10
2022-09-12T03:05:59.377Z,2.65
2022-09-12T03:06:40.675Z,2.38
2022-09-12T03:07:21.694Z,2.15
2022-09-12T03:08:17.368Z,2.22
2022-09-12T03:09:02.882Z,2.15
2022-09-12T03:09:39.151Z,1.80
2022-09-12T03:10:19.367Z,2.17
2022-09-12T03:11:16.416Z,2.10
2022-09-12T03:12:07.625Z,2.17
2022-09-12T03:12:47.813Z,2.30
2022-09-12T03:13:26.413Z,2.85
2022-09-12T03:14:07.596Z,2.10
2022-09-12T03:15:01.386Z,2.83
2022-09-12T03:15:44.009Z,2.30
2022-09-12T03:16:23.680Z,2.10
2022-09-12T03:17:11.699Z,2.40
2022-09-12T03:17:56.317Z,2.28
2022-09-12T03:18:40.340Z,1.73
2022-09-12T03:19:26.176Z,1.60
2022-09-12T03:20:03.400Z,2.35
2022-09-12T03:20:45.584Z,1.95
2022-09-12T03:21:28.054Z,1.80
2022-09-12T03:22:11.711Z,2.22
2022-09-12T03:22:53.093Z,2.35
2022-09-12T03:23:30.185Z,2.03
2022-09-12T03:24:13.488Z,2.13
2022-09-12T03:24:51.737Z,2.20
2022-09-12T03:25:28.549Z,2.70
2022-09-12T03:26:07.169Z,1.90
2022-09-12T03:26:43.230Z,2.05
2022-09-12T03:27:19.069Z,2.28
2022-09-12T03:27:59.040Z,1.92
2022-09-12T03:28:32.909Z,2.28
2022-09-12T03:29:07.030Z,2.35
2022-09-12T03:29:41.200Z,2.30
2022-09-12T03:30:13.133Z,1.80
2022-09-12T03:30:46.383Z,1.90
2022-09-12T03:31:20.618Z,2.70
2022-09-12T03:31:54.470Z,2.22
2022-09-12T03:32:46.259Z,2.20
2022-09-12T03:33:20.710Z,2.05
2022-09-12T03:33:52.494Z,2.00
2022-09-12T03:34:26.307Z,2.35
2022-09-12T03:34:59.050Z,2.15
2022-09-12T03:35:30.874Z,1.80
2022-09-12T03:36:02.965Z,2.47
2022-09-12T03:36:35.754Z,1.90
2022-09-12T03:37:07.679Z,2.20
2022-09-12T03:37:39.777Z,2.15
2022-09-12T03:38:12.558Z,1.95
2022-09-12T03:38:44.364Z,2.60
2022-09-12T03:39:16.852Z,2.00
2022-09-12T03:39:49.602Z,2.90
2022-09-12T03:40:21.573Z,2.35
2022-09-12T03:40:54.956Z,2.22
2022-09-12T03:41:27.847Z,2.75
2022-09-12T03:41:59.637Z,2.50
2022-09-12T03:42:31.549Z,2.40
2022-09-12T03:43:03.544Z,3.25
2022-09-12T03:43:36.294Z,2.15
2022-09-12T03:44:08.144Z,1.88
2022-09-12T03:44:39.942Z,2.40
2022-09-12T03:45:12.733Z,2.45
2022-09-12T03:45:44.537Z,2.25
2022-09-12T03:46:16.366Z,2.25
2022-09-12T03:46:49.293Z,2.20
2022-09-12T03:47:21.040Z,2.33
2022-09-12T03:47:54.157Z,2.20
2022-09-12T03:48:26.957Z,2.30
2022-09-12T03:48:58.768Z,2.85
2022-09-12T03:49:30.525Z,2.28
2022-09-12T03:50:03.600Z,1.90
2022-09-12T03:50:35.423Z,2.50
2022-09-12T03:51:09.173Z,2.63
2022-09-12T03:51:42.930Z,3.25
2022-09-12T03:52:15.329Z,2.15
2022-09-12T03:52:47.114Z,1.95
2022-09-12T03:53:19.884Z,1.90
2022-09-12T03:53:51.653Z,2.40
2022-09-12T03:54:23.573Z,2.53
2022-09-12T03:54:56.326Z,2.47
2022-09-12T03:55:28.120Z,2.22
2022-09-12T03:56:00.454Z,2.63
2022-09-12T03:56:33.483Z,2.30
2022-09-12T03:57:05.425Z,2.80
2022-09-12T03:57:37.218Z,2.08
2022-09-12T03:58:09.975Z,2.50
2022-09-12T03:58:41.883Z,2.90
2022-09-12T03:59:13.692Z,2.28
2022-09-12T03:59:45.454Z,2.33
2022-09-12T04:00:19.979Z,2.40
2022-09-12T04:00:51.912Z,2.22
2022-09-12T04:01:24.015Z,2.17
2022-09-12T04:01:56.830Z,2.58
2022-09-12T04:02:29.204Z,2.88
2022-09-12T04:03:02.328Z,2.78
2022-09-12T04:03:35.083Z,2.45
2022-09-12T04:04:06.857Z,2.25
2022-09-12T04:04:38.734Z,2.35
2022-09-12T04:05:11.491Z,2.88
2022-09-12T04:05:43.242Z,2.05
2022-09-12T04:06:17.321Z,2.25
2022-09-12T04:06:50.242Z,2.50
2022-09-12T04:07:22.042Z,2.28
2022-09-12T04:07:53.881Z,2.40
2022-09-12T04:08:27.196Z,2.33
2022-09-12T04:08:59.153Z,2.50
2022-09-12T04:09:30.941Z,2.25
2022-09-12T04:10:04.082Z,2.00
2022-09-12T04:10:35.906Z,2.60
2022-09-12T04:11:10.526Z,2.60
2022-09-12T04:11:43.282Z,1.95
2022-09-12T04:12:15.124Z,2.40
2022-09-12T04:12:47.085Z,2.85
2022-09-12T04:13:19.842Z,2.15
2022-09-12T04:13:51.655Z,2.70
2022-09-12T04:14:23.824Z,2.67
2022-09-12T04:14:56.541Z,2.47
2022-09-12T04:15:28.364Z,2.10
2022-09-12T04:16:00.552Z,2.40
2022-09-12T04:16:33.574Z,2.70
2022-09-12T04:17:05.417Z,2.40
2022-09-12T04:17:37.181Z,2.35
2022-09-12T04:18:11.229Z,2.30
2022-09-12T04:18:43.287Z,2.40
2022-09-12T04:19:15.176Z,2.70
2022-09-12T04:19:47.921Z,2.35
2022-09-12T04:20:20.013Z,2.05
2022-09-12T04:20:51.797Z,2.10
2022-09-12T04:21:24.581Z,2.20
2022-09-12T04:21:56.365Z,2.25
2022-09-12T04:22:29.765Z,5.03
2022-09-12T04:23:01.534Z,25.08
2022-09-12T04:23:34.849Z,18.30
2022-09-12T04:24:06.673Z,21.90
2022-09-12T04:24:38.533Z,15.63
2022-09-12T04:25:11.610Z,18.58
2022-09-12T04:25:43.414Z,21.60
2022-09-12T04:26:17.342Z,12.88
2022-09-12T04:26:50.141Z,7.95
2022-09-12T04:27:21.904Z,8.30
2022-09-12T04:27:53.688Z,5.15
2022-09-12T04:28:26.166Z,4.85
2022-09-12T04:28:59.115Z,3.25
2022-09-12T04:29:31.429Z,3.25
2022-09-12T04:30:04.568Z,2.90
2022-09-12T04:30:37.911Z,3.15
2022-09-12T04:31:13.837Z,3.05
2022-09-12T04:31:45.693Z,2.72
2022-09-12T04:32:18.785Z,2.65
2022-09-12T04:32:50.560Z,2.80
2022-09-12T04:33:23.687Z,2.80
2022-09-12T04:33:57.732Z,2.45
2022-09-12T04:34:31.005Z,3.10
2022-09-12T04:35:03.315Z,2.45
2022-09-12T04:35:36.478Z,2.85
2022-09-12T04:36:10.317Z,2.88
2022-09-12T04:36:42.261Z,2.17
2022-09-12T04:37:15.078Z,3.10
2022-09-12T04:37:46.881Z,2.20
2022-09-12T04:38:18.699Z,2.30
2022-09-12T04:38:52.220Z,2.58
2022-09-12T04:39:24.329Z,2.25
2022-09-12T04:39:57.833Z,2.45
2022-09-12T04:40:31.368Z,2.30
2022-09-12T04:41:11.265Z,2.42
2022-09-12T04:41:44.070Z,2.78
2022-09-12T04:42:15.926Z,2.35
2022-09-12T04:42:47.687Z,2.53
2022-09-12T04:43:20.486Z,2.40
2022-09-12T04:43:53.669Z,2.50
2022-09-12T04:44:26.397Z,2.30
2022-09-12T04:44:58.181Z,2.10
2022-09-12T04:45:30.455Z,2.38
2022-09-12T04:46:06.757Z,2.20
2022-09-12T04:46:41.022Z,2.90
2022-09-12T04:47:12.790Z,2.67
2022-09-12T04:47:46.629Z,2.20
2022-09-12T04:48:18.679Z,3.20
2022-09-12T04:48:56.061Z,2.40
2022-09-12T04:49:29.693Z,2.60
2022-09-12T04:50:01.506Z,2.30
2022-09-12T04:50:33.350Z,2.83
2022-09-12T04:51:10.096Z,2.38
2022-09-12T04:51:43.948Z,2.85
2022-09-12T04:52:15.799Z,2.30
2022-09-12T04:52:50.390Z,2.20
2022-09-12T04:53:23.168Z,2.85
2022-09-12T04:53:57.565Z,2.30
2022-09-12T04:54:29.357Z,4.55
2022-09-12T04:55:02.186Z,11.00
2022-09-12T04:55:35.469Z,21.95
2022-09-12T04:56:09.731Z,17.92
2022-09-12T04:56:44.379Z,12.00
2022-09-12T04:57:16.371Z,14.70
2022-09-12T04:57:48.614Z,10.77
2022-09-12T04:58:21.401Z,7.10
2022-09-12T04:58:53.206Z,5.05
2022-09-12T04:59:26.438Z,4.70
2022-09-12T05:00:01.797Z,3.08
2022-09-12T05:00:35.761Z,3.15
2022-09-12T05:01:11.179Z,3.00
2022-09-12T05:01:43.238Z,2.58
2022-09-12T05:02:15.248Z,3.67
2022-09-12T05:02:48.250Z,3.15
2022-09-12T05:03:20.017Z,2.50
2022-09-12T05:03:53.750Z,3.00
2022-09-12T05:04:26.488Z,3.15
2022-09-12T05:04:58.529Z,4.05
2022-09-12T05:05:30.281Z,3.05
2022-09-12T05:06:04.193Z,3.28
2022-09-12T05:06:38.165Z,3.15
2022-09-12T05:07:10.129Z,5.10
2022-09-12T05:07:43.252Z,6.93
2022-09-12T05:08:15.442Z,4.72
2022-09-12T05:08:47.758Z,5.70
2022-09-12T05:09:20.596Z,4.03
2022-09-12T05:09:52.397Z,3.83
2022-09-12T05:10:24.205Z,4.53
2022-09-12T05:10:57.045Z,3.47
2022-09-12T05:11:53.090Z,3.00
2022-09-12T05:12:23.699Z,3.10
2022-09-12T05:12:55.485Z,3.05
2022-09-12T05:13:27.386Z,3.97
2022-09-12T05:14:00.475Z,5.95
2022-09-12T05:14:32.921Z,12.80
2022-09-12T05:15:06.743Z,64.35
2022-09-12T05:15:39.873Z,32.92
2022-09-12T05:16:13.358Z,18.90
2022-09-12T05:16:49.461Z,81.45
2022-09-12T05:17:21.612Z,53.20
2022-09-12T05:17:53.385Z,41.65
2022-09-12T05:18:26.443Z,18.00
2022-09-12T05:19:00.385Z,16.38
2022-09-12T05:19:33.405Z,14.10
2022-09-12T05:20:05.903Z,7.75
2022-09-12T05:20:37.900Z,7.00
2022-09-12T05:21:14.598Z,7.95
2022-09-12T05:21:46.405Z,5.55
2022-09-12T05:22:19.133Z,4.00
2022-09-12T05:22:50.910Z,4.28
2022-09-12T05:23:24.678Z,3.38
2022-09-12T05:23:59.666Z,3.42
2022-09-12T05:24:32.533Z,3.40
2022-09-12T05:25:05.657Z,3.03
2022-09-12T05:25:38.413Z,2.88
2022-09-12T05:26:13.387Z,3.78
2022-09-12T05:26:45.166Z,4.00
2022-09-12T05:27:17.984Z,3.42
2022-09-12T05:27:52.546Z,2.88
2022-09-12T05:28:25.729Z,3.38
2022-09-12T05:28:58.534Z,2.58
2022-09-12T05:29:30.432Z,3.40
2022-09-12T05:30:02.225Z,3.28
2022-09-12T05:30:35.019Z,2.70
2022-09-12T05:31:08.891Z,3.00
2022-09-12T05:31:41.797Z,3.00
2022-09-12T05:32:13.635Z,2.78
2022-09-12T05:32:45.772Z,3.05
2022-09-12T05:33:20.963Z,2.90
2022-09-12T05:33:56.931Z,2.90
2022-09-12T05:34:31.066Z,3.08
2022-09-12T05:35:02.920Z,2.88
2022-09-12T05:35:34.721Z,3.47
2022-09-12T05:36:10.778Z,6.47
2022-09-12T05:36:42.750Z,10.55
2022-09-12T05:37:15.605Z,5.95
2022-09-12T05:37:47.441Z,4.25
2022-09-12T05:38:19.254Z,2.90
2022-09-12T05:38:52.193Z,3.40
2022-09-12T05:39:24.541Z,3.20
2022-09-12T05:39:56.635Z,3.50
2022-09-12T05:40:29.411Z,3.70
2022-09-12T05:41:06.196Z,5.13
2022-09-12T05:41:39.125Z,5.32
2022-09-12T05:42:10.960Z,3.30
2022-09-12T05:42:43.721Z,3.45
2022-09-12T05:43:15.544Z,4.22
2022-09-12T05:43:51.192Z,4.35
2022-09-12T05:44:24.794Z,3.15
2022-09-12T05:44:57.233Z,3.28
2022-09-12T05:45:31.638Z,2.70
2022-09-12T05:46:04.445Z,3.80
2022-09-12T05:46:38.180Z,2.60
2022-09-12T05:47:13.117Z,2.67
2022-09-12T05:47:46.672Z,2.80
2022-09-12T05:48:18.501Z,2.95
2022-09-12T05:48:55.904Z,2.83
2022-09-12T05:49:30.144Z,2.92
2022-09-12T05:50:02.058Z,2.70
2022-09-12T05:50:34.816Z,2.60
2022-09-12T05:51:09.553Z,2.80
2022-09-12T05:51:45.245Z,2.28
2022-09-12T05:52:17.077Z,2.40
2022-09-12T05:52:48.859Z,3.15
2022-09-12T05:53:21.741Z,3.13
2022-09-12T05:53:55.644Z,2.83
2022-09-12T05:54:31.675Z,2.80
2022-09-12T05:55:04.151Z,3.53
2022-09-12T05:55:36.633Z,3.30
2022-09-12T05:56:11.409Z,3.70
2022-09-12T05:56:44.709Z,2.90
2022-09-12T05:57:16.550Z,3.10
2022-09-12T05:57:49.357Z,2.55
2022-09-12T05:58:21.346Z,2.80
2022-09-12T05:58:55.825Z,3.55
2022-09-12T05:59:28.624Z,3.00
2022-09-12T06:00:01.100Z,2.78
2022-09-12T06:00:33.623Z,3.00
2022-09-12T06:01:08.433Z,3.58
2022-09-12T06:01:40.811Z,3.20
2022-09-12T06:02:13.947Z,3.35
2022-09-12T06:02:45.770Z,2.60
2022-09-12T06:03:17.637Z,2.80
2022-09-12T06:03:52.480Z,2.80
2022-09-12T06:04:25.404Z,3.15
2022-09-12T06:04:58.510Z,2.50
2022-09-12T06:05:33.096Z,2.40
2022-09-12T06:06:07.115Z,2.90
2022-09-12T06:06:41.636Z,2.50
2022-09-12T06:07:15.533Z,3.13
2022-09-12T06:07:47.411Z,2.80
2022-09-12T06:08:19.168Z,3.10
2022-09-12T06:08:53.337Z,3.55
2022-09-12T06:09:25.610Z,3.15
2022-09-12T06:09:59.158Z,3.80
2022-09-12T06:10:32.001Z,4.45
2022-09-12T06:11:05.715Z,3.85
2022-09-12T06:11:40.684Z,3.70
2022-09-12T06:12:13.582Z,3.33
2022-09-12T06:12:45.449Z,3.17
2022-09-12T06:13:17.214Z,3.35
2022-09-12T06:13:50.833Z,3.03
2022-09-12T06:14:22.724Z,4.25
2022-09-12T06:14:54.487Z,3.55
2022-09-12T06:15:27.782Z,3.60
2022-09-12T06:16:05.284Z,3.78
2022-09-12T06:16:38.061Z,3.30
2022-09-12T06:17:10.824Z,3.50
2022-09-12T06:17:42.582Z,3.72
2022-09-12T06:18:14.377Z,2.97
2022-09-12T06:18:49.164Z,3.15
2022-09-12T06:19:23.100Z,3.08
2022-09-12T06:19:55.229Z,3.17
2022-09-12T06:20:29.347Z,3.15
2022-09-12T06:21:03.723Z,3.30
2022-09-12T06:21:35.532Z,3.70
2022-09-12T06:22:08.313Z,3.03
2022-09-12T06:22:40.106Z,2.80
2022-09-12T06:23:12.607Z,3.10
2022-09-12T06:23:47.003Z,15.10
2022-09-12T06:24:20.114Z,43.65
2022-09-12T06:24:54.830Z,32.42
2022-09-12T06:25:30.550Z,23.02
2022-09-12T06:26:04.147Z,17.60
2022-09-12T06:26:37.017Z,9.23
2022-09-12T06:27:08.816Z,7.00
2022-09-12T06:27:40.575Z,6.90
2022-09-12T06:28:12.382Z,6.68
2022-09-12T06:28:46.283Z,5.70
2022-09-12T06:29:19.215Z,5.40
2022-09-12T06:29:51.498Z,4.38
2022-09-12T06:30:25.571Z,4.40
2022-09-12T06:31:04.467Z,3.80
2022-09-12T06:31:39.125Z,3.80
2022-09-12T06:32:11.526Z,3.45
2022-09-12T06:32:43.305Z,3.25
2022-09-12T06:33:15.477Z,3.58
2022-09-12T06:33:50.206Z,3.22
2022-09-12T06:34:22.013Z,3.33
2022-09-12T06:34:54.794Z,3.22
2022-09-12T06:35:27.932Z,3.30
2022-09-12T06:36:06.895Z,4.00
2022-09-12T06:36:43.209Z,3.15
2022-09-12T06:37:15.061Z,3.15
2022-09-12T06:37:46.808Z,3.80
2022-09-12T06:38:19.638Z,3.63
2022-09-12T06:38:54.890Z,3.83
2022-09-12T06:39:27.656Z,3.42
2022-09-12T06:40:01.987Z,3.70
2022-09-12T06:40:33.985Z,3.10
2022-09-12T06:41:07.894Z,3.95
2022-09-12T06:41:43.650Z,3.30
2022-09-12T06:42:17.085Z,3.45
2022-09-12T06:42:48.850Z,4.25
2022-09-12T06:43:20.624Z,4.85
2022-09-12T06:43:54.005Z,4.43
2022-09-12T06:44:25.790Z,4.25
2022-09-12T06:44:57.626Z,3.92
2022-09-12T06:45:30.390Z,3.88
2022-09-12T06:46:03.160Z,4.13
2022-09-12T06:46:35.094Z,3.45
2022-09-12T06:47:08.406Z,4.25
2022-09-12T06:47:40.222Z,3.33
2022-09-12T06:48:12.009Z,3.30
2022-09-12T06:48:44.839Z,3.50
2022-09-12T06:49:17.452Z,3.55
2022-09-12T06:49:50.851Z,4.60
2022-09-12T06:50:22.941Z,14.98
2022-09-12T06:51:00.278Z,46.25
2022-09-12T06:51:33.041Z,21.08
2022-09-12T06:52:04.990Z,10.40
2022-09-12T06:52:36.765Z,10.23
2022-09-12T06:53:09.681Z,9.57
2022-09-12T06:53:42.429Z,6.53
2022-09-12T06:54:16.680Z,5.47
2022-09-12T06:54:49.410Z,5.43
2022-09-12T06:55:25.784Z,3.75
2022-09-12T06:56:00.559Z,3.67
2022-09-12T06:56:33.301Z,4.00
2022-09-12T06:57:05.137Z,4.40
2022-09-12T06:57:38.813Z,3.80
2022-09-12T06:58:10.764Z,3.47
2022-09-12T06:58:43.654Z,4.32
2022-09-12T06:59:16.577Z,3.95
2022-09-12T06:59:48.377Z,3.72
2022-09-12T07:00:21.144Z,3.95
2022-09-12T07:00:57.209Z,5.50
2022-09-12T07:01:32.013Z,3.95
2022-09-12T07:02:04.840Z,3.88
2022-09-12T07:02:36.683Z,3.83
2022-09-12T07:03:08.724Z,3.83
2022-09-12T07:03:41.759Z,4.10
2022-09-12T07:04:13.528Z,4.00
2022-09-12T07:04:45.525Z,4.07
2022-09-12T07:05:18.264Z,3.67
2022-09-12T07:05:50.096Z,4.97
2022-09-12T07:06:29.649Z,5.55
2022-09-12T07:07:02.637Z,3.60
2022-09-12T07:07:35.809Z,4.32
2022-09-12T07:08:07.639Z,3.88
2022-09-12T07:08:41.270Z,5.05
2022-09-12T07:09:16.309Z,4.03
2022-09-12T07:09:49.310Z,4.75
2022-09-12T07:10:22.441Z,4.10
2022-09-12T07:10:54.730Z,4.60
2022-09-12T07:11:30.433Z,3.75
2022-09-12T07:12:04.308Z,3.65
2022-09-12T07:12:36.062Z,3.83
2022-09-12T07:13:07.821Z,4.03
2022-09-12T07:13:41.318Z,4.40
2022-09-12T07:14:14.988Z,3.60
2022-09-12T07:14:46.774Z,3.70
2022-09-12T07:15:19.501Z,4.78
2022-09-12T07:15:51.677Z,5.78
2022-09-12T07:16:24.570Z,5.57
2022-09-12T07:16:56.506Z,7.00
2022-09-12T07:17:28.853Z,7.10
2022-09-12T07:18:01.637Z,6.68
2022-09-12T07:18:34.108Z,6.70
2022-09-12T07:19:07.500Z,6.55
2022-09-12T07:19:40.255Z,5.70
2022-09-12T07:20:12.098Z,5.57
2022-09-12T07:20:43.950Z,4.80
2022-09-12T07:21:16.900Z,5.20
2022-09-12T07:21:50.061Z,3.63
2022-09-12T07:22:22.797Z,3.70
2022-09-12T07:22:54.563Z,4.15
2022-09-12T07:23:26.362Z,4.45
2022-09-12T07:23:59.694Z,4.70
2022-09-12T07:24:31.436Z,4.85
2022-09-12T07:25:04.954Z,4.45
2022-09-12T07:25:37.587Z,4.25
2022-09-12T07:26:12.820Z,3.95
2022-09-12T07:26:44.641Z,4.53
2022-09-12T07:27:16.408Z,3.60
2022-09-12T07:27:51.221Z,3.58
2022-09-12T07:28:24.243Z,4.75
2022-09-12T07:29:12.719Z,4.95
2022-09-12T07:29:49.973Z,4.50
2022-09-12T07:30:22.440Z,3.80
2022-09-12T07:30:54.703Z,4.18
2022-09-12T07:31:28.922Z,4.60
2022-09-12T07:32:01.740Z,4.28
2022-09-12T07:32:34.531Z,5.00
2022-09-12T07:33:06.706Z,3.47
2022-09-12T07:33:40.105Z,4.28
2022-09-12T07:34:13.817Z,5.97
2022-09-12T07:34:45.773Z,5.60
2022-09-12T07:35:17.957Z,4.70
2022-09-12T07:35:50.926Z,5.22
2022-09-12T07:36:25.193Z,5.13
2022-09-12T07:36:58.634Z,4.20
2022-09-12T07:37:32.162Z,4.20
2022-09-12T07:38:04.010Z,3.65
2022-09-12T07:38:36.625Z,3.38
2022-09-12T07:39:09.562Z,3.17
2022-09-12T07:39:41.398Z,4.00
2022-09-12T07:40:13.363Z,3.35
2022-09-12T07:40:46.345Z,4.97
2022-09-12T07:41:20.814Z,6.50
2022-09-12T07:41:52.582Z,4.40
2022-09-12T07:42:25.354Z,5.72
2022-09-12T07:42:57.172Z,5.25